Time;durP1;ratioP1;P1;durP2;ratioP2;P2;SDS_P1;SDS_P2;PMS_P1;PMS_P2;Temp;Humidity;BMP_temperature;BMP_pressure;BME280_temperature;BME280_humidity;BME280_pressure;Samples;Min_cycle;Max_cycle;Signal;HPM_P1;HPM_P2
2022/08/29 00:01:04;;;;;;;3.92;1.50;;;;;;;14.55;100.00;98721.34;15271810;19;20016;-77
2022/08/29 00:06:10;;;;;;;3.00;1.33;;;;;;;14.51;100.00;98719.16;15261554;19;20006;-77
2022/08/29 00:11:17;;;;;;;3.72;1.40;;;;;;;14.47;100.00;98719.53;15274701;19;20038;-78
2022/08/29 00:16:22;;;;;;;4.22;1.50;;;;;;;14.43;100.00;98720.88;15269304;19;20018;-77
2022/08/29 00:21:27;;;;;;;3.70;1.42;;;;;;;14.37;100.00;98715.34;15271750;19;20038;-75
2022/08/29 00:26:34;;;;;;;6.28;1.50;;;;;;;14.31;100.00;98719.59;15271347;19;20371;-77
2022/08/29 00:31:39;;;;;;;4.18;1.60;;;;;;;14.23;100.00;98727.78;15270671;19;20018;-76
2022/08/29 00:36:43;;;;;;;4.35;1.50;;;;;;;14.13;100.00;98728.84;15266937;19;20010;-79
2022/08/29 00:41:55;;;;;;;6.18;1.58;;;;;;;14.04;100.00;98729.94;15272456;19;20042;-76
2022/08/29 00:47:06;;;;;;;4.93;1.60;;;;;;;13.97;100.00;98737.03;15271758;19;20030;-77
2022/08/29 00:52:15;;;;;;;;;;;;;;;13.89;100.00;98732.50;15269920;19;20010;-76
2022/08/29 00:57:25;;;;;;;5.00;1.70;;;;;;;13.82;100.00;98732.34;15270185;19;19923;-76
2022/08/29 01:02:29;;;;;;;4.63;1.50;;;;;;;13.75;100.00;98731.38;15268250;19;20010;-74
2022/08/29 01:07:34;;;;;;;7.72;1.75;;;;;;;13.70;100.00;98744.59;15264725;19;20015;-75
2022/08/29 01:12:44;;;;;;;4.30;1.77;;;;;;;13.65;100.00;98741.56;15265376;19;20024;-75
2022/08/29 01:17:48;;;;;;;5.18;1.83;;;;;;;13.55;100.00;98734.47;15270668;19;20053;-75
2022/08/29 01:23:03;;;;;;;4.30;1.55;;;;;;;13.53;100.00;98735.66;15266033;19;20038;-74
2022/08/29 01:28:16;;;;;;;5.70;1.80;;;;;;;13.54;100.00;98740.91;15274129;19;20367;-75
2022/08/29 01:33:20;;;;;;;2.72;1.60;;;;;;;13.54;100.00;98746.31;15301891;19;20014;-75
2022/08/29 01:38:29;;;;;;;3.30;1.45;;;;;;;13.49;100.00;98746.00;15282104;19;20034;-74
2022/08/29 01:43:41;;;;;;;4.30;1.95;;;;;;;13.36;100.00;98749.19;15268006;19;20030;-74
2022/08/29 01:48:47;;;;;;;5.45;1.60;;;;;;;13.26;100.00;98752.06;15279472;19;20034;-74
2022/08/29 01:53:52;;;;;;;4.38;1.73;;;;;;;13.19;100.00;98752.91;15275587;19;20010;-75
2022/08/29 01:59:01;;;;;;;3.95;1.85;;;;;;;13.10;100.00;98749.41;15279942;19;20034;-76
2022/08/29 02:04:07;;;;;;;4.72;1.67;;;;;;;12.98;100.00;98761.56;15273761;19;20014;-77
2022/08/29 02:09:12;;;;;;;5.93;1.52;;;;;;;12.90;100.00;98757.81;15274982;19;20038;-76
2022/08/29 02:14:19;;;;;;;4.35;1.63;;;;;;;12.84;100.00;98753.09;15265472;19;20265;-75
2022/08/29 02:19:24;;;;;;;3.60;1.70;;;;;;;12.76;100.00;98755.78;15272621;19;20030;-76
2022/08/29 02:24:29;;;;;;;5.05;1.70;;;;;;;12.67;100.00;98759.50;15275461;19;20023;-78
2022/08/29 02:29:36;;;;;;;3.63;1.63;;;;;;;12.58;100.00;98755.94;15278038;19;20009;-75
2022/08/29 02:34:43;;;;;;;4.07;1.70;;;;;;;12.51;100.00;98763.88;15273792;19;20014;-76
2022/08/29 02:39:51;;;;;;;4.35;1.73;;;;;;;12.43;100.00;98759.28;15277753;19;20010;-76
2022/08/29 02:44:58;;;;;;;3.67;1.60;;;;;;;12.36;100.00;98768.22;15270067;19;20026;-76
2022/08/29 02:50:05;;;;;;;4.03;1.70;;;;;;;12.29;100.00;98774.25;15271928;19;20073;-76
2022/08/29 02:55:14;;;;;;;5.18;2.03;;;;;;;12.19;100.00;98781.66;15272445;19;20011;-77
2022/08/29 03:00:24;;;;;;;5.15;1.90;;;;;;;12.11;100.00;98787.03;15278238;19;20014;-77
2022/08/29 03:05:33;;;;;;;3.92;1.90;;;;;;;11.99;100.00;98784.63;15275843;19;20014;-78
2022/08/29 03:10:39;;;;;;;2.65;1.60;;;;;;;11.94;100.00;98786.91;15280286;19;20091;-77
2022/08/29 03:15:46;;;;;;;3.53;1.70;;;;;;;11.89;100.00;98775.75;15270019;19;20465;-77
2022/08/29 03:20:52;;;;;;;4.47;1.95;;;;;;;11.82;100.00;98782.78;15273289;19;20632;-77
2022/08/29 03:25:57;;;;;;;4.90;1.80;;;;;;;11.76;100.00;98778.06;15272174;19;20042;-76
2022/08/29 03:31:04;;;;;;;3.63;1.77;;;;;;;11.70;100.00;98783.06;15276372;19;20018;-76
2022/08/29 03:36:10;;;;;;;4.22;1.90;;;;;;;11.66;100.00;98784.41;15272772;19;20106;-76
2022/08/29 03:41:22;;;;;;;4.97;1.98;;;;;;;11.61;100.00;98786.72;15270677;19;20018;-77
2022/08/29 03:46:29;;;;;;;4.40;1.90;;;;;;;11.55;100.00;98787.38;15275159;19;20022;-75
2022/08/29 03:51:34;;;;;;;5.28;2.05;;;;;;;11.48;100.00;98783.59;15265899;19;20089;-77
2022/08/29 03:56:39;;;;;;;4.30;1.90;;;;;;;11.44;100.00;98785.78;15272229;19;20018;-75
2022/08/29 04:01:48;;;;;;;4.60;1.88;;;;;;;11.41;100.00;98789.66;15272930;19;20168;-80
2022/08/29 04:06:53;;;;;;;5.47;1.70;;;;;;;11.37;100.00;98795.50;15275443;19;20015;-77
2022/08/29 04:11:58;;;;;;;5.13;1.98;;;;;;;11.32;100.00;98801.38;15267862;19;20015;-75
2022/08/29 04:17:06;;;;;;;6.55;2.10;;;;;;;11.28;100.00;98815.34;15265877;19;20096;-75
2022/08/29 04:22:12;;;;;;;8.80;2.20;;;;;;;11.19;100.00;98823.34;15257178;19;20029;-76
2022/08/29 04:27:17;;;;;;;5.05;2.10;;;;;;;11.14;100.00;98814.88;15272138;19;20014;-75
2022/08/29 04:32:24;;;;;;;6.10;2.50;;;;;;;11.13;100.00;98821.28;15269927;19;20021;-74
2022/08/29 04:37:29;;;;;;;22.55;2.95;;;;;;;11.10;100.00;98821.59;15273523;19;20502;-78
2022/08/29 04:42:37;;;;;;;4.60;2.20;;;;;;;11.10;100.00;98826.97;15268257;19;20079;-76
2022/08/29 04:47:45;;;;;;;4.13;2.10;;;;;;;11.08;100.00;98837.94;15272806;19;20054;-77
2022/08/29 04:52:51;;;;;;;4.80;2.15;;;;;;;11.08;100.00;98829.84;15264332;19;20019;-77
2022/08/29 04:57:57;;;;;;;5.10;2.00;;;;;;;11.07;100.00;98843.47;15269912;19;20025;-78
2022/08/29 05:03:06;;;;;;;4.53;2.10;;;;;;;11.06;100.00;98831.84;15278048;19;20074;-80
2022/08/29 05:08:11;;;;;;;5.72;2.08;;;;;;;11.06;100.00;98848.00;15314592;19;20018;-78
2022/08/29 05:13:16;;;;;;;7.40;2.40;;;;;;;11.07;100.00;98849.72;15278524;19;20022;-78
2022/08/29 05:18:23;;;;;;;6.43;2.22;;;;;;;11.09;100.00;98842.31;15281404;19;20034;-76
2022/08/29 05:23:27;;;;;;;4.63;2.08;;;;;;;11.12;100.00;98848.38;15280720;19;20021;-78
2022/08/29 05:28:34;;;;;;;5.50;2.10;;;;;;;11.17;100.00;98856.88;15273784;19;20015;-78
2022/08/29 05:33:41;;;;;;;7.10;2.50;;;;;;;11.23;100.00;98858.97;15279620;19;20011;-78
2022/08/29 05:38:46;;;;;;;7.60;2.40;;;;;;;11.29;100.00;98862.91;15280624;19;20021;-78
2022/08/29 05:43:53;;;;;;;7.20;2.25;;;;;;;11.35;100.00;98873.88;15279072;19;20132;-78
2022/08/29 05:49:00;;;;;;;7.90;2.55;;;;;;;11.43;100.00;98874.97;15280820;19;20471;-78
2022/08/29 05:54:04;;;;;;;5.70;2.25;;;;;;;11.49;100.00;98891.38;15278947;19;20014;-78
2022/08/29 05:59:10;;;;;;;7.13;2.28;;;;;;;11.59;100.00;98885.88;15269335;19;20475;-78
2022/08/29 06:04:18;;;;;;;7.07;2.58;;;;;;;11.68;100.00;98890.38;15275445;19;20031;-78
2022/08/29 06:09:23;;;;;;;4.88;2.20;;;;;;;11.77;100.00;98880.44;15280994;19;20036;-78
2022/08/29 06:14:28;;;;;;;4.55;2.30;;;;;;;11.90;100.00;98877.34;15278266;19;20018;-78
2022/08/29 06:19:36;;;;;;;6.10;2.53;;;;;;;12.04;100.00;98883.22;15277336;19;20078;-78
2022/08/29 06:24:40;;;;;;;5.25;2.10;;;;;;;12.17;100.00;98889.03;15276394;19;20014;-78
2022/08/29 06:29:48;;;;;;;5.50;2.42;;;;;;;12.31;100.00;98883.00;15278313;19;20020;-78
2022/08/29 06:34:55;;;;;;;16.30;2.30;;;;;;;12.45;100.00;98880.72;15270120;19;20010;-78
2022/08/29 06:39:59;;;;;;;5.43;2.30;;;;;;;12.62;100.00;98887.03;15281744;19;20018;-78
2022/08/29 06:45:04;;;;;;;3.85;1.98;;;;;;;12.78;100.00;98892.50;15277474;19;20479;-78
2022/08/29 06:50:11;;;;;;;7.25;2.30;;;;;;;12.97;100.00;98889.69;15280165;19;20542;-78
2022/08/29 06:55:16;;;;;;;6.80;2.40;;;;;;;13.13;100.00;98884.31;15272890;19;20027;-78
2022/08/29 07:00:27;;;;;;;5.07;2.10;;;;;;;13.30;100.00;98873.50;15279113;19;20023;-78
2022/08/29 07:05:34;;;;;;;5.72;2.42;;;;;;;13.46;100.00;98862.75;15262853;19;20034;-78
2022/08/29 07:10:39;;;;;;;6.00;2.50;;;;;;;13.65;100.00;98871.53;15277815;19;20021;-77
2022/08/29 07:15:43;;;;;;;5.97;2.10;;;;;;;13.77;100.00;98867.44;15276020;19;20014;-78
2022/08/29 07:20:53;;;;;;;5.05;2.20;;;;;;;13.96;100.00;98860.81;15278468;19;20010;-78
2022/08/29 07:26:08;;;;;;;4.32;2.00;;;;;;;14.13;100.00;98855.34;15273712;19;20038;-78
2022/08/29 07:31:12;;;;;;;6.30;2.20;;;;;;;14.29;100.00;98849.88;15275210;19;20350;-78
2022/08/29 07:36:20;;;;;;;5.68;2.20;;;;;;;14.40;100.00;98845.09;15262904;19;20014;-78
2022/08/29 07:41:25;;;;;;;5.80;2.30;;;;;;;14.56;100.00;98853.19;15274236;19;20022;-78
2022/08/29 07:46:30;;;;;;;8.40;2.40;;;;;;;14.76;100.00;98863.63;15275253;19;20778;-78
2022/08/29 07:51:37;;;;;;;4.22;1.85;;;;;;;14.93;100.00;98864.38;15278069;19;20014;-78
2022/08/29 07:56:50;;;;;;;4.63;2.05;;;;;;;15.07;100.00;98855.47;15272245;19;20078;-78
2022/08/29 08:01:54;;;;;;;3.17;1.88;;;;;;;15.25;100.00;98849.75;15272420;19;20015;-78
2022/08/29 08:07:01;;;;;;;4.32;2.03;;;;;;;15.39;100.00;98858.97;15267566;19;20116;-78
2022/08/29 08:12:08;;;;;;;4.75;2.10;;;;;;;15.55;100.00;98854.44;15268940;19;20019;-78
2022/08/29 08:17:13;;;;;;;6.80;2.30;;;;;;;15.77;100.00;98855.41;15271759;19;20030;-78
2022/08/29 08:22:20;;;;;;;6.68;2.30;;;;;;;15.97;100.00;98863.91;15274086;19;20010;-78
2022/08/29 08:27:24;;;;;;;7.57;2.30;;;;;;;16.20;100.00;98860.28;15272311;19;20018;-78
2022/08/29 08:32:29;;;;;;;4.95;2.30;;;;;;;16.33;100.00;98870.50;15267884;19;20014;-78
2022/08/29 08:37:38;;;;;;;7.03;2.78;;;;;;;16.50;100.00;98863.00;15270426;19;20293;-78
2022/08/29 08:42:46;;;;;;;5.07;2.17;;;;;;;16.66;100.00;98864.66;15298621;19;20373;-77
2022/08/29 08:47:53;;;;;;;3.85;2.08;;;;;;;16.84;100.00;98864.25;15281170;19;20011;-77
2022/08/29 08:53:07;;;;;;;6.70;2.00;;;;;;;17.07;100.00;98852.41;15281967;19;20010;-78
2022/08/29 08:58:20;;;;;;;3.92;1.83;;;;;;;17.29;100.00;98852.41;15280997;19;20014;-78
2022/08/29 09:04:12;;;;;;;4.05;1.90;;;;;;;17.43;100.00;98851.50;15282600;19;20042;-77
2022/08/29 09:09:31;;;;;;;4.63;2.00;;;;;;;17.54;100.00;98844.66;15281339;19;20022;-77
2022/08/29 09:14:49;;;;;;;5.32;1.90;;;;;;;17.65;100.00;98840.56;15269398;19;20025;-77
2022/08/29 09:19:54;;;;;;;4.15;1.92;;;;;;;17.81;100.00;98828.53;15283534;19;20027;-77
2022/08/29 09:25:04;;;;;;;4.07;1.70;;;;;;;17.94;100.00;98836.81;15277561;19;20021;-77
2022/08/29 09:30:12;;;;;;;3.20;1.70;;;;;;;18.14;100.00;98838.84;15282482;19;20038;-78
2022/08/29 09:35:23;;;;;;;5.15;1.80;;;;;;;18.18;100.00;98842.88;15280419;19;20041;-78
2022/08/29 09:40:47;;;;;;;7.30;1.90;;;;;;;18.31;100.00;98847.56;15279893;19;20050;-78
2022/08/29 09:46:17;;;;;;;4.18;2.00;;;;;;;18.48;100.00;98851.66;15269604;19;20010;-78
2022/08/29 09:51:27;;;;;;;3.45;1.98;;;;;;;18.57;100.00;98859.66;15282836;19;20747;-78
2022/08/29 09:56:36;;;;;;;5.18;2.08;;;;;;;18.74;100.00;98850.09;15278608;19;20018;-78
2022/08/29 10:01:41;;;;;;;5.70;1.70;;;;;;;18.69;100.00;98843.56;15282429;19;20018;-78
2022/08/29 10:06:47;;;;;;;4.97;1.67;;;;;;;18.82;100.00;98850.94;15281458;19;20019;-78
2022/08/29 10:12:02;;;;;;;4.57;1.70;;;;;;;18.90;100.00;98842.56;15279518;19;20018;-78
2022/08/29 10:22:37;;;;;;;3.33;1.63;;;;;;;19.16;100.00;98838.25;15280966;19;20081;-79
2022/08/29 10:27:50;;;;;;;4.38;1.60;;;;;;;19.26;100.00;98835.97;15279092;19;20019;-79
2022/08/29 10:33:10;;;;;;;6.60;1.90;;;;;;;19.39;100.00;98838.72;15274435;19;20007;-79
2022/08/29 10:38:23;;;;;;;4.47;1.70;;;;;;;19.49;100.00;98838.31;15274628;19;20466;-79
2022/08/29 10:43:45;;;;;;;4.38;1.77;;;;;;;19.63;100.00;98838.31;15272107;19;20022;-79
2022/08/29 10:48:59;;;;;;;3.55;1.55;;;;;;;19.71;100.00;98836.19;15266472;19;20038;-79
2022/08/29 10:54:13;;;;;;;3.53;1.73;;;;;;;19.90;100.00;98833.72;15272853;19;20079;-78
2022/08/29 10:59:30;;;;;;;3.13;1.60;;;;;;;20.04;100.00;98822.75;15273118;19;20014;-78
2022/08/29 11:04:39;;;;;;;5.40;1.80;;;;;;;20.17;100.00;98817.22;15272778;19;20045;-78
2022/08/29 11:09:49;;;;;;;3.60;1.50;;;;;;;20.18;100.00;98824.38;15274023;19;20022;-79
2022/08/29 11:15:02;;;;;;;4.38;1.45;;;;;;;20.27;100.00;98814.06;15272541;19;20007;-79
2022/08/29 11:20:11;;;;;;;3.88;1.60;;;;;;;20.29;100.00;98820.16;15268640;19;20510;-79
2022/08/29 11:25:17;;;;;;;4.32;1.50;;;;;;;20.42;100.00;98811.06;15267451;19;20718;-79
2022/08/29 11:30:31;;;;;;;6.32;1.75;;;;;;;20.51;100.00;98808.94;15276789;19;20026;-79
2022/08/29 11:35:54;;;;;;;2.85;1.30;;;;;;;20.67;100.00;98813.94;15271780;19;20499;-76
2022/08/29 11:41:15;;;;;;;3.13;1.50;;;;;;;20.67;100.00;98813.06;15272715;19;20446;-78
2022/08/29 11:46:42;;;;;;;5.07;1.73;;;;;;;21.01;100.00;98813.78;15274388;19;20010;-79
2022/08/29 11:51:50;;;;;;;3.28;1.52;;;;;;;21.17;100.00;98813.25;15278964;19;20046;-80
2022/08/29 11:57:32;;;;;;;4.63;1.60;;;;;;;21.35;100.00;98809.75;15307476;19;20010;-79
2022/08/29 12:02:43;;;;;;;5.35;1.60;;;;;;;21.28;91.99;98814.47;15306219;19;20024;-80
2022/08/29 12:07:57;;;;;;;2.65;1.20;;;;;;;21.24;93.69;98808.56;15304552;19;20637;-79
2022/08/29 12:13:09;;;;;;;2.63;1.33;;;;;;;21.19;91.69;98808.41;15307806;19;20476;-81
2022/08/29 12:18:51;;;;;;;3.70;1.45;;;;;;;21.36;96.27;98802.38;15310745;19;20026;-79
2022/08/29 12:23:55;;;;;;;;;;;;;;;21.52;89.18;98793.59;15301075;19;20042;-81
2022/08/29 12:29:01;;;;;;;3.47;1.25;;;;;;;21.62;100.00;98792.28;15301296;19;19943;-80
2022/08/29 12:34:34;;;;;;;1.92;1.08;;;;;;;21.67;76.57;98786.97;15299212;19;20026;-79
2022/08/29 12:39:55;;;;;;;4.18;1.40;;;;;;;21.88;82.15;98782.97;15299332;19;20039;-79
2022/08/29 12:45:02;;;;;;;4.28;1.50;;;;;;;22.32;84.49;98782.91;15294726;19;20011;-80
2022/08/29 12:50:19;;;;;;;3.17;1.20;;;;;;;22.27;63.62;98789.09;15299278;19;20042;-79
2022/08/29 12:55:26;;;;;;;3.00;1.27;;;;;;;22.68;78.27;98788.66;15288725;19;20042;-79
2022/08/29 13:00:34;;;;;;;3.00;1.20;;;;;;;22.83;82.72;98778.06;15294665;19;20035;-79
2022/08/29 13:05:42;;;;;;;2.08;1.15;;;;;;;22.88;69.29;98766.38;15298149;19;20098;-80
2022/08/29 13:10:56;;;;;;;2.85;1.35;;;;;;;22.78;68.39;98765.03;15296684;19;20050;-79
2022/08/29 13:16:03;;;;;;;2.22;1.17;;;;;;;22.85;83.77;98766.88;15284726;19;20359;-78
2022/08/29 13:21:15;;;;;;;5.00;1.15;;;;;;;22.87;64.87;98759.22;15293596;19;20010;-77
2022/08/29 13:26:23;;;;;;;3.05;1.10;;;;;;;22.96;64.91;98755.06;15295353;19;20010;-79
2022/08/29 13:31:31;;;;;;;5.32;1.10;;;;;;;23.26;60.79;98756.13;15285439;19;20515;-79
2022/08/29 13:36:46;;;;;;;3.38;1.13;;;;;;;23.34;59.28;98745.59;15307734;19;20037;-78
2022/08/29 13:42:12;;;;;;;4.50;1.13;;;;;;;23.50;54.60;98733.09;15314700;19;20021;-80
2022/08/29 13:47:19;;;;;;;5.40;1.05;;;;;;;23.63;55.60;98734.75;15362097;19;20040;-78
2022/08/29 13:52:26;;;;;;;3.72;0.95;;;;;;;23.95;56.15;98730.81;15324430;19;20020;-79
2022/08/29 13:57:35;;;;;;;1.98;1.00;;;;;;;24.12;53.18;98730.91;15320220;19;20486;-80
2022/08/29 14:02:40;;;;;;;3.70;0.95;;;;;;;24.62;54.36;98729.44;15315262;19;20050;-79
2022/08/29 14:07:51;;;;;;;2.72;1.27;;;;;;;24.64;52.07;98729.22;15314652;19;20014;-80
2022/08/29 14:12:55;;;;;;;4.00;1.00;;;;;;;24.61;50.21;98717.59;15315540;19;20015;-78
2022/08/29 14:18:01;;;;;;;1.58;0.90;;;;;;;24.93;50.27;98719.88;15314003;19;20011;-78
2022/08/29 14:23:13;;;;;;;2.25;1.10;;;;;;;25.65;46.81;98702.84;15333800;19;20002;-80
2022/08/29 14:28:18;;;;;;;1.27;0.90;;;;;;;25.66;44.96;98691.53;15328104;19;20051;-80
2022/08/29 14:33:24;;;;;;;1.80;1.10;;;;;;;25.89;47.03;98692.41;15281621;19;20491;-76
2022/08/29 14:38:31;;;;;;;3.25;1.10;;;;;;;25.84;43.79;98695.94;15295144;19;20018;-80
2022/08/29 14:43:36;;;;;;;12.20;0.90;;;;;;;25.92;48.54;98699.34;15290400;19;20042;-79
2022/08/29 14:48:43;;;;;;;4.05;1.15;;;;;;;26.44;45.79;98690.63;15291485;19;20629;-79
2022/08/29 14:53:53;;;;;;;3.35;1.17;;;;;;;26.26;43.50;98683.50;15295394;19;20018;-80
2022/08/29 14:58:58;;;;;;;3.10;1.00;;;;;;;26.33;44.60;98694.38;15291453;19;20014;-78
2022/08/29 15:04:03;;;;;;;1.98;1.10;;;;;;;26.43;41.79;98696.41;15297454;19;20007;-79
2022/08/29 15:09:10;;;;;;;1.35;1.02;;;;;;;26.15;44.82;98690.84;15302982;19;20467;-78
2022/08/29 15:14:15;;;;;;;6.25;1.13;;;;;;;25.68;42.56;98686.59;15303870;19;20022;-76
2022/08/29 15:19:20;;;;;;;3.05;1.25;;;;;;;25.37;41.84;98690.78;15300345;19;20347;-78
2022/08/29 15:24:48;;;;;;;1.58;1.00;;;;;;;25.88;43.57;98685.22;15292587;19;20077;-76
2022/08/29 15:29:53;;;;;;;3.17;1.02;;;;;;;25.90;42.68;98683.03;15291524;19;20002;-76
2022/08/29 15:34:58;;;;;;;4.60;0.80;;;;;;;25.63;44.01;98682.94;15281581;19;20014;-77
2022/08/29 15:40:07;;;;;;;2.38;0.90;;;;;;;25.72;44.71;98678.66;15280592;19;20006;-79
2022/08/29 15:45:16;;;;;;;4.00;1.00;;;;;;;25.74;43.27;98676.47;15281149;19;20031;-78
2022/08/29 15:50:26;;;;;;;1.30;0.85;;;;;;;25.82;43.19;98664.97;15280786;19;20869;-81
2022/08/29 15:55:33;;;;;;;1.17;0.70;;;;;;;25.67;43.49;98664.81;15280139;19;20035;-79
2022/08/29 16:00:39;;;;;;;1.70;0.60;;;;;;;25.69;45.32;98662.63;15277627;19;20014;-78
2022/08/29 16:05:44;;;;;;;1.67;0.93;;;;;;;25.65;47.28;98658.69;15282004;19;20011;-78
2022/08/29 16:10:52;;;;;;;1.40;0.90;;;;;;;26.10;48.73;98652.13;15280589;19;20024;-76
2022/08/29 16:15:57;;;;;;;3.67;0.95;;;;;;;26.26;48.41;98660.59;15282528;19;20018;-80
2022/08/29 16:21:02;;;;;;;2.15;0.85;;;;;;;26.63;49.75;98657.13;15285434;19;20141;-76
2022/08/29 16:26:10;;;;;;;2.53;0.80;;;;;;;26.87;49.26;98654.88;15285461;19;20061;-80
2022/08/29 16:31:15;;;;;;;2.65;0.90;;;;;;;26.88;48.53;98644.66;15287001;19;20344;-76
2022/08/29 16:36:19;;;;;;;6.88;1.25;;;;;;;26.61;48.72;98645.50;15292891;19;20042;-76
2022/08/29 16:41:28;;;;;;;2.28;1.20;;;;;;;26.54;49.68;98648.47;15274677;19;20018;-77
2022/08/29 16:46:33;;;;;;;4.78;1.00;;;;;;;26.27;49.79;98643.75;15283117;19;20067;-76
2022/08/29 16:51:38;;;;;;;1.95;0.80;;;;;;;26.10;50.71;98643.84;15282033;19;20028;-80
2022/08/29 16:56:46;;;;;;;2.70;0.90;;;;;;;26.09;51.65;98649.59;15281078;19;20510;-77
2022/08/29 17:01:53;;;;;;;3.85;1.10;;;;;;;25.95;52.10;98629.81;15279985;19;20042;-78
2022/08/29 17:07:00;;;;;;;2.88;1.02;;;;;;;25.63;53.26;98628.59;15287978;19;20011;-79
2022/08/29 17:17:10;;;;;;;3.72;0.98;;;;;;;25.06;56.34;98635.19;15292134;19;20054;-78
2022/08/29 17:22:17;;;;;;;2.35;1.17;;;;;;;24.62;59.99;98641.28;15299253;19;20038;-77
2022/08/29 17:27:24;;;;;;;1.15;0.88;;;;;;;24.36;59.64;98648.25;15304274;19;20881;-77
2022/08/29 17:32:33;;;;;;;4.63;1.05;;;;;;;24.04;64.00;98643.22;15295697;19;20015;-75
2022/08/29 17:37:38;;;;;;;4.28;1.00;;;;;;;23.88;65.97;98636.53;15296385;19;20010;-78
2022/08/29 17:42:46;;;;;;;4.50;1.10;;;;;;;23.77;64.78;98650.06;15295129;19;20046;-77
2022/08/29 17:47:51;;;;;;;1.73;0.90;;;;;;;23.53;66.50;98647.34;15292120;19;20021;-76
2022/08/29 17:52:55;;;;;;;4.20;1.00;;;;;;;23.28;69.12;98644.03;15294246;19;20038;-78
2022/08/29 17:58:03;;;;;;;2.08;1.00;;;;;;;22.94;72.17;98650.88;15304450;19;20030;-76
2022/08/29 18:03:12;;;;;;;2.35;1.00;;;;;;;22.71;76.09;98643.44;15306398;19;20344;-77
2022/08/29 18:08:18;;;;;;;3.63;1.20;;;;;;;22.39;80.24;98648.34;15312468;19;20018;-78
2022/08/29 18:13:26;;;;;;;2.85;1.00;;;;;;;22.19;85.26;98651.34;15308174;19;20015;-79
2022/08/29 18:18:32;;;;;;;1.35;0.90;;;;;;;21.92;97.08;98660.75;15308752;19;20022;-77
2022/08/29 18:23:38;;;;;;;3.05;1.00;;;;;;;21.67;100.00;98667.16;15305055;19;20049;-79
2022/08/29 18:28:46;;;;;;;2.17;0.95;;;;;;;21.42;100.00;98666.34;15233894;19;20077;-79
2022/08/29 18:33:53;;;;;;;3.35;1.00;;;;;;;21.16;100.00;98677.31;15310746;19;20014;-78
2022/08/29 18:39:17;;;;;;;4.20;1.10;;;;;;;20.76;100.00;98674.88;15332526;19;20007;-78
2022/08/29 18:44:25;;;;;;;2.08;1.00;;;;;;;20.57;100.00;98676.69;15347293;19;20022;-85
2022/08/29 18:54:47;;;;;;;2.70;1.00;;;;;;;20.22;100.00;98688.88;15292771;19;20030;-79
2022/08/29 18:59:55;;;;;;;5.68;1.13;;;;;;;19.88;100.00;98693.63;15297345;19;20060;-77
2022/08/29 19:05:00;;;;;;;4.78;1.00;;;;;;;19.65;100.00;98697.66;15292365;19;20002;-77
2022/08/29 19:10:05;;;;;;;3.53;1.00;;;;;;;19.53;100.00;98699.38;15294745;19;20503;-77
2022/08/29 19:15:14;;;;;;;4.13;1.02;;;;;;;19.42;100.00;98705.47;15301835;19;20489;-79
2022/08/29 19:25:40;;;;;;;3.00;1.20;;;;;;;19.11;100.00;98712.44;15281919;19;20609;-78
2022/08/29 19:30:49;;;;;;;2.22;1.00;;;;;;;19.02;100.00;98720.81;15312120;19;20022;-77
2022/08/29 19:35:55;;;;;;;3.47;1.05;;;;;;;18.84;100.00;98715.09;15308535;19;20025;-79
2022/08/29 19:41:03;;;;;;;2.65;1.00;;;;;;;18.74;100.00;98708.16;15336405;19;20022;-77
2022/08/29 19:46:14;;;;;;;2.92;1.20;;;;;;;18.65;100.00;98720.28;15344803;19;20014;-78
2022/08/29 19:51:28;;;;;;;5.95;1.13;;;;;;;18.57;100.00;98724.09;15292380;19;20718;-79
2022/08/29 19:56:34;;;;;;;4.80;1.30;;;;;;;18.49;100.00;98732.44;15285249;19;20019;-81
2022/08/29 20:01:44;;;;;;;3.78;1.30;;;;;;;18.37;100.00;98724.03;15281132;19;20077;-80
2022/08/29 20:06:49;;;;;;;2.70;1.30;;;;;;;18.21;100.00;98732.53;15289745;19;20011;-79
2022/08/29 20:11:54;;;;;;;3.90;1.30;;;;;;;18.14;100.00;98740.69;15289538;19;20015;-81
2022/08/29 20:17:02;;;;;;;3.05;1.40;;;;;;;18.00;100.00;98735.16;15292835;19;20022;-81
2022/08/29 20:22:13;;;;;;;8.05;1.40;;;;;;;17.92;100.00;98731.75;15300867;19;20007;-79
2022/08/29 20:27:20;;;;;;;3.75;1.13;;;;;;;17.85;100.00;98737.19;15298311;19;20038;-81
2022/08/29 20:32:27;;;;;;;2.10;1.10;;;;;;;17.76;100.00;98733.75;15299374;19;20022;-78
2022/08/29 20:37:32;;;;;;;4.43;1.20;;;;;;;17.67;100.00;98751.31;15305585;19;20074;-82
2022/08/29 20:42:37;;;;;;;2.08;1.20;;;;;;;17.62;100.00;98751.06;15306774;19;21027;-82
2022/08/29 20:47:44;;;;;;;4.47;1.27;;;;;;;17.55;100.00;98749.13;15321657;19;20015;-80
2022/08/29 20:52:50;;;;;;;5.72;1.25;;;;;;;17.49;100.00;98754.53;15325048;19;20010;-81
2022/08/29 20:57:54;;;;;;;3.17;1.20;;;;;;;17.41;100.00;98769.13;15324195;19;20003;-80
2022/08/29 21:08:22;;;;;;;2.30;1.50;;;;;;;17.30;100.00;98762.34;15329684;19;20018;-80
2022/08/29 21:13:28;;;;;;;3.28;1.20;;;;;;;17.23;100.00;98761.44;15318692;19;20010;-81
2022/08/29 21:18:35;;;;;;;3.25;1.35;;;;;;;17.17;100.00;98763.06;15335381;19;20010;-80
2022/08/29 21:23:39;;;;;;;4.15;1.40;;;;;;;17.08;100.00;98759.63;15330032;19;20033;-81
2022/08/29 21:28:44;;;;;;;3.95;1.30;;;;;;;17.01;100.00;98757.88;15330283;19;20006;-80
2022/08/29 21:33:53;;;;;;;4.43;1.38;;;;;;;16.97;100.00;98762.06;15321936;19;20021;-80
2022/08/29 21:39:02;;;;;;;5.32;1.60;;;;;;;16.89;100.00;98760.25;15326101;19;20010;-82
2022/08/29 21:44:07;;;;;;;4.00;1.63;;;;;;;16.83;100.00;98756.44;15318445;19;20069;-79
2022/08/29 21:49:17;;;;;;;2.00;1.35;;;;;;;16.77;100.00;98758.06;15323860;19;20011;-83
2022/08/29 21:54:21;;;;;;;2.30;1.40;;;;;;;16.71;100.00;98761.53;15315062;19;20009;-79
2022/08/29 21:59:27;;;;;;;4.70;1.45;;;;;;;16.70;100.00;98762.56;15324251;19;20010;-79
2022/08/29 22:04:34;;;;;;;2.83;1.50;;;;;;;16.63;100.00;98754.34;15310777;19;20017;-77
2022/08/29 22:09:39;;;;;;;6.32;1.35;;;;;;;16.60;100.00;98756.59;15311633;19;20470;-78
2022/08/29 22:20:10;;;;;;;3.75;1.40;;;;;;;16.51;100.00;98768.63;15323745;19;20058;-79
2022/08/29 22:25:15;;;;;;;3.20;1.40;;;;;;;16.47;100.00;98768.19;15307590;19;20109;-80
2022/08/29 22:30:21;;;;;;;3.58;1.38;;;;;;;16.44;100.00;98763.13;15298911;19;20015;-77
2022/08/29 22:35:39;;;;;;;5.22;1.42;;;;;;;16.40;100.00;98761.84;15327669;19;20054;-80
2022/08/29 22:40:43;;;;;;;3.97;1.40;;;;;;;16.37;100.00;98756.75;15340038;19;20052;-79
2022/08/29 22:45:49;;;;;;;4.35;1.58;;;;;;;16.36;100.00;98755.91;15304681;19;20010;-77
2022/08/29 22:51:00;;;;;;;4.88;1.40;;;;;;;16.34;100.00;98763.44;15304949;19;20507;-78
2022/08/29 22:56:05;;;;;;;3.15;1.50;;;;;;;16.30;100.00;98768.38;15317005;19;20026;-78
2022/08/29 23:01:10;;;;;;;3.72;1.45;;;;;;;16.27;100.00;98755.19;15302180;19;20018;-77
2022/08/29 23:06:17;;;;;;;4.45;1.75;;;;;;;16.19;100.00;98766.16;15305053;19;20006;-76
2022/08/29 23:11:23;;;;;;;5.65;1.55;;;;;;;16.12;100.00;98767.94;15275595;19;20026;-76
2022/08/29 23:16:28;;;;;;;2.53;1.38;;;;;;;16.08;100.00;98761.19;15293410;19;20106;-76
2022/08/29 23:21:36;;;;;;;2.47;1.60;;;;;;;16.02;100.00;98760.94;15290192;19;20034;-76
2022/08/29 23:26:44;;;;;;;3.42;1.60;;;;;;;15.99;100.00;98760.47;15291900;19;20025;-76
2022/08/29 23:31:49;;;;;;;3.63;1.60;;;;;;;15.98;100.00;98759.63;15295869;19;20038;-77
2022/08/29 23:36:56;;;;;;;4.10;1.60;;;;;;;15.97;100.00;98757.09;15291212;19;20010;-77
2022/08/29 23:42:01;;;;;;;2.38;1.40;;;;;;;15.88;100.00;98764.50;15283034;19;20035;-76
2022/08/29 23:47:06;;;;;;;3.25;1.50;;;;;;;15.76;100.00;98760.53;15288791;19;20015;-77
2022/08/29 23:52:14;;;;;;;4.68;1.67;;;;;;;15.63;100.00;98764.72;15288075;19;20011;-77
2022/08/29 23:57:19;;;;;;;2.33;1.60;;;;;;;15.53;100.00;98758.72;15291419;19;20038;-78
